Time;durP1;ratioP1;P1;durP2;ratioP2;P2;SDS_P1;SDS_P2;PMS_P1;PMS_P2;Temp;Humidity;BMP_temperature;BMP_pressure;BME280_temperature;BME280_humidity;BME280_pressure;Samples;Min_cycle;Max_cycle;Signal;HPM_P1;HPM_P2
2022/10/15 00:01:41;;;;;;;34.65;18.05;;;14.80;99.90;;;;;;5040801;28;20037;-69
2022/10/15 00:04:07;;;;;;;28.55;17.30;;;14.80;99.90;;;;;;5044981;28;20021;-70
2022/10/15 00:06:33;;;;;;;21.50;16.92;;;14.80;99.90;;;;;;5042405;28;20372;-69
2022/10/15 00:08:58;;;;;;;54.53;17.15;;;14.80;99.90;;;;;;5036505;28;20094;-70
2022/10/15 00:11:26;;;;;;;45.78;16.80;;;14.80;99.90;;;;;;5035661;28;20032;-69
2022/10/15 00:13:56;;;;;;;21.95;15.88;;;14.80;99.90;;;;;;5048719;28;20114;-71
2022/10/15 00:16:24;;;;;;;57.85;16.30;;;14.80;99.90;;;;;;5042677;28;20029;-71
2022/10/15 00:18:50;;;;;;;19.15;15.80;;;14.80;99.90;;;;;;5038690;28;20132;-71
2022/10/15 00:21:19;;;;;;;46.25;16.80;;;14.80;99.90;;;;;;5052897;28;20039;-71
2022/10/15 00:23:48;;;;;;;19.25;15.30;;;14.80;99.90;;;;;;5037763;28;20044;-71
2022/10/15 00:26:31;;;;;;;23.25;15.68;;;14.80;99.90;;;;;;5037874;28;20032;-71
2022/10/15 00:29:00;;;;;;;22.67;15.90;;;14.70;99.90;;;;;;5050924;28;20048;-71
2022/10/15 00:31:27;;;;;;;32.72;16.58;;;14.80;99.90;;;;;;5047275;28;20021;-70
2022/10/15 00:33:55;;;;;;;21.77;15.60;;;14.80;99.90;;;;;;5052176;28;20036;-70
2022/10/15 00:36:23;;;;;;;24.27;16.17;;;14.80;99.90;;;;;;5036497;28;20108;-71
2022/10/15 00:38:49;;;;;;;34.60;17.13;;;14.70;99.90;;;;;;5040542;28;20477;-70
2022/10/15 00:41:18;;;;;;;19.17;15.30;;;14.70;99.90;;;;;;5051910;28;20116;-68
2022/10/15 00:43:47;;;;;;;25.20;15.25;;;14.60;99.90;;;;;;5040375;28;20403;-70
2022/10/15 00:46:34;;;;;;;20.35;15.63;;;14.60;99.90;;;;;;5047916;28;20099;-69
2022/10/15 00:49:28;;;;;;;15.52;13.82;;;14.50;99.90;;;;;;5050798;28;20023;-71
2022/10/15 00:52:00;;;;;;;15.40;13.57;;;14.50;99.90;;;;;;5037908;28;20028;-70
2022/10/15 00:54:29;;;;;;;15.23;13.63;;;14.50;99.90;;;;;;5052367;28;20033;-70
2022/10/15 00:56:55;;;;;;;15.98;13.00;;;14.50;99.90;;;;;;5034243;28;20084;-70
2022/10/15 00:59:25;;;;;;;15.85;12.85;;;14.60;99.90;;;;;;5052318;28;20052;-70
2022/10/15 01:01:51;;;;;;;14.95;13.40;;;14.60;99.90;;;;;;5039059;28;20033;-70
2022/10/15 01:04:17;;;;;;;14.98;13.00;;;14.60;99.90;;;;;;5040897;28;20026;-70
2022/10/15 01:06:44;;;;;;;14.70;13.20;;;14.60;99.90;;;;;;5038985;28;20112;-70
2022/10/15 01:09:11;;;;;;;14.73;13.18;;;14.60;99.90;;;;;;5050354;28;20468;-69
2022/10/15 01:11:45;;;;;;;15.18;12.38;;;14.60;99.90;;;;;;5054258;28;20028;-69
2022/10/15 01:14:41;;;;;;;15.35;13.70;;;14.60;99.90;;;;;;5042022;28;20033;-69
2022/10/15 01:17:29;;;;;;;15.73;13.77;;;14.60;99.90;;;;;;5034480;28;20477;-70
2022/10/15 01:19:57;;;;;;;17.20;13.50;;;14.60;99.90;;;;;;5034121;28;20500;-70
2022/10/15 01:23:01;;;;;;;16.80;13.88;;;14.60;99.90;;;;;;5034057;28;20041;-70
2022/10/15 01:25:40;;;;;;;15.07;12.88;;;14.60;99.90;;;;;;5046542;28;20477;-70
2022/10/15 01:28:25;;;;;;;16.15;13.38;;;14.70;99.90;;;;;;5033590;28;20446;-70
2022/10/15 01:31:00;;;;;;;14.73;12.93;;;14.60;99.90;;;;;;5034117;28;20017;-70
2022/10/15 01:33:54;;;;;;;14.23;12.70;;;14.70;99.90;;;;;;5034260;28;20026;-70
2022/10/15 01:36:39;;;;;;;17.02;13.90;;;14.60;99.90;;;;;;5037956;28;20116;-69
2022/10/15 01:39:19;;;;;;;15.52;13.93;;;14.70;99.90;;;;;;5054302;28;20531;-69
2022/10/15 01:41:59;;;;;;;15.60;13.57;;;14.60;99.90;;;;;;5049182;28;20393;-70
2022/10/15 01:44:43;;;;;;;18.05;14.55;;;14.60;99.90;;;;;;5051296;28;20451;-69
2022/10/15 01:47:18;;;;;;;15.73;13.77;;;14.60;99.90;;;;;;5050552;28;20079;-69
2022/10/15 01:49:46;;;;;;;14.70;12.82;;;14.60;99.90;;;;;;5051360;28;20145;-69
2022/10/15 01:52:26;;;;;;;16.17;14.27;;;14.70;99.90;;;;;;5033708;28;20045;-68
2022/10/15 01:54:52;;;;;;;17.38;15.07;;;14.60;99.90;;;;;;5049599;28;20036;-69
2022/10/15 01:57:20;;;;;;;19.58;15.73;;;14.60;99.90;;;;;;5049662;28;20106;-69
2022/10/15 01:59:45;;;;;;;20.63;15.90;;;14.70;99.90;;;;;;5051039;28;20553;-69
2022/10/15 02:02:12;;;;;;;19.98;16.33;;;14.70;99.90;;;;;;5037449;28;20045;-69
2022/10/15 02:04:38;;;;;;;22.17;17.38;;;14.70;99.90;;;;;;5042728;28;20389;-68
2022/10/15 02:07:14;;;;;;;22.05;16.85;;;14.70;99.90;;;;;;5034981;28;20025;-68
2022/10/15 02:09:59;;;;;;;22.52;17.27;;;14.60;99.90;;;;;;5039127;28;20026;-69
2022/10/15 02:13:02;;;;;;;21.35;17.17;;;14.60;99.90;;;;;;5037434;28;20040;-69
2022/10/15 02:15:37;;;;;;;;;;;14.70;99.90;;;;;;5032180;28;20489;-70
2022/10/15 02:18:51;;;;;;;23.77;16.55;;;14.70;99.90;;;;;;5043199;28;19917;-70
2022/10/15 02:21:24;;;;;;;23.65;17.20;;;14.70;99.90;;;;;;5032478;28;20033;-69
2022/10/15 02:24:28;;;;;;;23.85;17.77;;;14.70;99.90;;;;;;5040436;28;20049;-70
2022/10/15 02:26:56;;;;;;;24.95;17.88;;;14.70;99.90;;;;;;5031723;28;20452;-69
2022/10/15 02:29:25;;;;;;;26.38;19.75;;;14.70;99.90;;;;;;5050229;28;20041;-70
2022/10/15 02:31:54;;;;;;;23.70;18.55;;;14.70;99.90;;;;;;5036354;28;20480;-70
2022/10/15 02:34:24;;;;;;;22.95;17.50;;;14.70;99.90;;;;;;5051902;28;20025;-69
2022/10/15 02:36:54;;;;;;;23.75;19.02;;;14.70;99.90;;;;;;5039568;28;20087;-70
2022/10/15 02:39:25;;;;;;;23.77;17.27;;;14.70;99.90;;;;;;5049149;28;20021;-70
2022/10/15 02:41:52;;;;;;;25.23;18.05;;;14.80;99.90;;;;;;5049739;28;20116;-70
2022/10/15 02:44:18;;;;;;;24.58;18.38;;;14.70;99.90;;;;;;5033490;28;20029;-70
2022/10/15 02:46:44;;;;;;;26.52;19.25;;;14.70;99.90;;;;;;5033945;28;20031;-70
2022/10/15 02:49:09;;;;;;;27.83;18.98;;;14.70;99.90;;;;;;5036300;28;20393;-70
2022/10/15 02:51:36;;;;;;;26.25;20.35;;;14.70;99.90;;;;;;5044545;28;20481;-70
2022/10/15 02:54:03;;;;;;;26.00;20.08;;;14.70;99.90;;;;;;5036204;28;20021;-69
2022/10/15 02:56:29;;;;;;;31.23;21.00;;;14.70;99.90;;;;;;5050643;28;20427;-69
2022/10/15 02:58:54;;;;;;;26.40;20.10;;;14.70;99.90;;;;;;5038593;28;20029;-69
2022/10/15 03:01:20;;;;;;;29.63;21.48;;;14.60;99.90;;;;;;5033563;28;20029;-70
2022/10/15 03:03:46;;;;;;;31.25;21.13;;;14.70;99.90;;;;;;5038178;28;20049;-69
2022/10/15 03:06:11;;;;;;;28.05;20.23;;;14.70;99.90;;;;;;5040044;28;20029;-69
2022/10/15 03:08:37;;;;;;;29.67;21.80;;;14.60;99.90;;;;;;5040418;28;20084;-70
2022/10/15 03:11:02;;;;;;;28.85;22.25;;;14.70;99.90;;;;;;5036376;28;20112;-68
2022/10/15 03:13:28;;;;;;;32.33;22.35;;;14.70;99.90;;;;;;5036743;28;20017;-69
2022/10/15 03:15:54;;;;;;;33.38;22.52;;;14.70;99.90;;;;;;5036413;28;20087;-68
2022/10/15 03:18:21;;;;;;;33.33;22.33;;;14.70;99.90;;;;;;5036379;28;20101;-69
2022/10/15 03:20:56;;;;;;;36.58;24.20;;;14.70;99.90;;;;;;5036581;28;20053;-69
2022/10/15 03:23:22;;;;;;;35.75;25.00;;;14.60;99.90;;;;;;5036577;28;20037;-70
2022/10/15 03:25:47;;;;;;;35.42;24.27;;;14.60;99.90;;;;;;5036144;28;20556;-69
2022/10/15 03:28:13;;;;;;;34.90;22.75;;;14.50;99.90;;;;;;5036244;28;20136;-69
2022/10/15 03:30:39;;;;;;;35.50;23.45;;;14.50;99.90;;;;;;5040637;28;20026;-69
2022/10/15 03:33:04;;;;;;;32.58;23.00;;;14.50;99.90;;;;;;5045634;28;20408;-70
2022/10/15 03:35:30;;;;;;;30.90;23.05;;;14.50;99.90;;;;;;5036064;28;20026;-70
2022/10/15 03:37:55;;;;;;;28.67;20.20;;;14.50;99.90;;;;;;5040338;28;20040;-70
2022/10/15 03:40:21;;;;;;;28.88;21.38;;;14.40;99.90;;;;;;5037403;28;20408;-70
2022/10/15 03:42:50;;;;;;;28.52;21.17;;;14.40;99.90;;;;;;5035656;28;20033;-70
2022/10/15 03:45:19;;;;;;;26.20;20.33;;;14.40;99.90;;;;;;5047851;28;20033;-70
2022/10/15 03:47:45;;;;;;;31.67;23.15;;;14.40;99.90;;;;;;5045545;28;20081;-70
2022/10/15 03:50:12;;;;;;;31.33;23.10;;;14.40;99.90;;;;;;5053338;28;20108;-69
2022/10/15 03:52:38;;;;;;;29.38;21.20;;;14.40;99.90;;;;;;5046608;28;20552;-70
2022/10/15 03:55:04;;;;;;;30.10;20.90;;;14.40;99.90;;;;;;5045275;28;20163;-69
2022/10/15 03:57:30;;;;;;;25.80;20.13;;;14.40;99.90;;;;;;5047223;28;20511;-69
2022/10/15 03:59:56;;;;;;;27.55;20.25;;;14.50;99.90;;;;;;5043302;28;20029;-69
2022/10/15 04:02:23;;;;;;;27.90;19.95;;;14.50;99.90;;;;;;5052238;28;20102;-70
2022/10/15 04:04:54;;;;;;;27.85;20.83;;;14.50;99.90;;;;;;5041291;28;20425;-70
2022/10/15 04:07:20;;;;;;;29.13;21.40;;;14.50;99.90;;;;;;5034476;28;20061;-70
2022/10/15 04:09:46;;;;;;;27.40;20.50;;;14.60;99.90;;;;;;5039773;28;20024;-70
2022/10/15 04:12:12;;;;;;;26.10;19.58;;;14.60;99.90;;;;;;5049269;28;20380;-71
2022/10/15 04:14:39;;;;;;;26.08;19.55;;;14.60;99.90;;;;;;5049652;28;20397;-70
2022/10/15 04:17:05;;;;;;;31.17;20.98;;;14.60;99.90;;;;;;5047894;28;20033;-70
2022/10/15 04:19:30;;;;;;;28.40;20.27;;;14.60;99.90;;;;;;5035956;28;20496;-70
2022/10/15 04:21:56;;;;;;;27.15;19.90;;;14.60;99.90;;;;;;5036126;28;20045;-70
2022/10/15 04:24:22;;;;;;;26.17;20.10;;;14.60;99.90;;;;;;5046393;28;20072;-70
2022/10/15 04:26:51;;;;;;;27.42;19.80;;;14.70;99.90;;;;;;5036171;28;20362;-70
2022/10/15 04:29:17;;;;;;;27.60;19.77;;;14.60;99.90;;;;;;5063421;28;20041;-70
2022/10/15 04:31:43;;;;;;;28.73;19.95;;;14.60;99.90;;;;;;5038222;28;20071;-70
2022/10/15 04:34:09;;;;;;;27.20;20.33;;;14.70;99.90;;;;;;5052572;28;20486;-70
2022/10/15 04:36:37;;;;;;;29.55;20.42;;;14.60;99.90;;;;;;5041187;28;20125;-70
2022/10/15 04:39:03;;;;;;;27.17;19.92;;;14.70;99.90;;;;;;5038968;28;20032;-70
2022/10/15 04:41:29;;;;;;;24.23;18.50;;;14.70;99.90;;;;;;5041711;28;20037;-70
2022/10/15 04:43:56;;;;;;;26.30;18.75;;;14.60;99.90;;;;;;5050986;28;20495;-70
2022/10/15 04:46:21;;;;;;;22.35;17.30;;;14.60;99.90;;;;;;5044677;28;20117;-69
2022/10/15 04:48:47;;;;;;;25.67;19.00;;;14.70;99.90;;;;;;5035877;28;20489;-70
2022/10/15 04:51:21;;;;;;;24.50;19.30;;;14.70;99.90;;;;;;5042073;28;20035;-69
2022/10/15 04:53:46;;;;;;;26.77;20.73;;;14.70;99.90;;;;;;5044223;28;20048;-69
2022/10/15 04:56:16;;;;;;;25.45;19.30;;;14.70;99.90;;;;;;5039698;28;20464;-69
2022/10/15 04:58:43;;;;;;;27.50;21.33;;;14.70;99.90;;;;;;5037426;28;20505;-69
2022/10/15 05:01:13;;;;;;;25.30;21.20;;;14.70;99.90;;;;;;5048187;28;20120;-69
2022/10/15 05:03:40;;;;;;;24.25;19.10;;;14.70;99.90;;;;;;5048669;28;20041;-69
2022/10/15 05:06:18;;;;;;;25.88;20.00;;;14.60;99.90;;;;;;5048104;28;20107;-69
2022/10/15 05:08:44;;;;;;;25.30;19.63;;;14.70;99.90;;;;;;5039295;28;20484;-69
2022/10/15 05:11:15;;;;;;;25.38;19.75;;;14.70;99.90;;;;;;5034625;28;20032;-70
2022/10/15 05:13:41;;;;;;;24.58;19.77;;;14.70;99.90;;;;;;5034189;28;20032;-70
2022/10/15 05:16:21;;;;;;;24.15;19.48;;;14.70;99.90;;;;;;5034585;28;20021;-68
2022/10/15 05:18:50;;;;;;;25.77;19.55;;;14.70;99.90;;;;;;5034132;28;20436;-70
2022/10/15 05:21:16;;;;;;;27.27;19.02;;;14.70;99.90;;;;;;5042272;28;20021;-68
2022/10/15 05:23:43;;;;;;;23.65;19.20;;;14.70;99.90;;;;;;5062432;28;20032;-67
2022/10/15 05:26:13;;;;;;;23.70;18.70;;;14.70;99.90;;;;;;5044990;28;20021;-70
2022/10/15 05:28:38;;;;;;;28.10;19.15;;;14.70;99.90;;;;;;5034024;28;20045;-71
2022/10/15 05:31:09;;;;;;;25.27;18.77;;;14.70;99.90;;;;;;5033428;28;20029;-71
2022/10/15 05:33:35;;;;;;;23.92;19.08;;;14.80;99.90;;;;;;5034091;28;20032;-71
2022/10/15 05:36:21;;;;;;;25.58;19.27;;;14.70;99.90;;;;;;5033927;28;20350;-71
2022/10/15 05:38:51;;;;;;;27.20;19.63;;;14.80;99.90;;;;;;5045801;28;20033;-71
2022/10/15 05:41:17;;;;;;;26.25;19.75;;;14.80;99.90;;;;;;5031194;28;20109;-71
2022/10/15 05:43:46;;;;;;;30.73;20.50;;;14.80;99.90;;;;;;5036888;28;20033;-71
2022/10/15 05:46:14;;;;;;;27.00;21.67;;;14.80;99.90;;;;;;5047208;28;20112;-71
2022/10/15 05:48:40;;;;;;;24.67;20.27;;;14.80;99.90;;;;;;5047677;28;20021;-70
2022/10/15 05:51:10;;;;;;;24.70;19.75;;;14.70;99.90;;;;;;5051332;28;20032;-70
2022/10/15 05:53:36;;;;;;;29.63;22.02;;;14.80;99.90;;;;;;5038376;28;20136;-70
2022/10/15 05:56:02;;;;;;;24.42;20.27;;;14.80;99.90;;;;;;5034142;28;20064;-70
2022/10/15 05:58:28;;;;;;;25.63;19.88;;;14.80;99.90;;;;;;5036930;28;20452;-70
2022/10/15 06:00:59;;;;;;;30.25;20.20;;;14.80;99.90;;;;;;5033182;28;20093;-70
2022/10/15 06:03:25;;;;;;;24.25;19.25;;;14.80;99.90;;;;;;5038838;28;20095;-70
2022/10/15 06:05:51;;;;;;;25.85;21.23;;;14.80;99.90;;;;;;5035312;28;20021;-70
2022/10/15 06:08:17;;;;;;;27.15;21.38;;;14.80;99.90;;;;;;5048113;28;20380;-70
2022/10/15 06:10:43;;;;;;;31.08;21.40;;;14.80;99.90;;;;;;5048283;28;20025;-70
2022/10/15 06:13:09;;;;;;;25.50;20.60;;;14.80;99.90;;;;;;5043708;28;20128;-70
2022/10/15 06:15:39;;;;;;;28.23;23.17;;;14.80;99.90;;;;;;5042269;28;20033;-70
2022/10/15 06:18:05;;;;;;;31.30;24.88;;;14.80;99.90;;;;;;5038569;28;20030;-70
2022/10/15 06:20:31;;;;;;;27.20;23.27;;;14.80;99.90;;;;;;5034806;28;20505;-69
2022/10/15 06:22:57;;;;;;;31.45;25.45;;;14.80;99.90;;;;;;5054030;28;20037;-69
2022/10/15 06:25:23;;;;;;;32.13;24.23;;;14.70;99.90;;;;;;5048552;28;20090;-69
2022/10/15 06:27:49;;;;;;;33.33;24.88;;;14.70;99.90;;;;;;5042652;28;20088;-69
2022/10/15 06:30:14;;;;;;;34.63;24.95;;;14.80;99.90;;;;;;5046494;28;20021;-69
2022/10/15 06:32:49;;;;;;;31.40;23.90;;;14.70;99.90;;;;;;5033695;28;20056;-69
2022/10/15 06:35:19;;;;;;;36.65;25.65;;;14.70;99.90;;;;;;5044867;28;20030;-69
2022/10/15 06:37:45;;;;;;;33.72;25.38;;;14.70;99.90;;;;;;5042259;28;20110;-73
2022/10/15 06:40:11;;;;;;;37.35;26.35;;;14.70;99.90;;;;;;5045650;28;20568;-71
2022/10/15 06:42:37;;;;;;;34.00;26.83;;;14.70;99.90;;;;;;5043738;28;20048;-71
2022/10/15 06:45:04;;;;;;;34.20;25.35;;;14.60;99.90;;;;;;5049274;28;20376;-71
2022/10/15 06:47:30;;;;;;;34.42;25.50;;;14.60;99.90;;;;;;5044231;28;20514;-72
2022/10/15 06:49:55;;;;;;;40.85;26.40;;;14.60;99.90;;;;;;5049378;28;20050;-72
2022/10/15 06:52:22;;;;;;;36.92;26.05;;;14.50;99.90;;;;;;5039060;28;20037;-71
2022/10/15 06:54:48;;;;;;;35.45;25.85;;;14.50;99.90;;;;;;5043117;28;20101;-71
2022/10/15 06:57:14;;;;;;;40.38;27.42;;;14.50;99.90;;;;;;5051779;28;20512;-72
2022/10/15 06:59:39;;;;;;;38.92;25.63;;;14.50;99.90;;;;;;5051363;28;20032;-71
2022/10/15 07:02:05;;;;;;;35.97;23.63;;;14.50;99.90;;;;;;5049995;28;20076;-71
2022/10/15 07:04:31;;;;;;;38.13;25.75;;;14.50;99.90;;;;;;5034803;28;20104;-71
2022/10/15 07:06:56;;;;;;;36.92;24.13;;;14.50;99.90;;;;;;5047376;28;20032;-71
2022/10/15 07:09:22;;;;;;;35.35;24.10;;;14.60;99.90;;;;;;5034682;28;20028;-71
2022/10/15 07:11:47;;;;;;;36.22;24.17;;;14.60;99.90;;;;;;5036477;28;20025;-73
2022/10/15 07:14:13;;;;;;;33.20;23.98;;;14.60;99.90;;;;;;5036940;28;20120;-74
2022/10/15 07:16:39;;;;;;;38.92;23.20;;;14.70;99.90;;;;;;5041393;28;20519;-72
2022/10/15 07:19:05;;;;;;;36.58;24.17;;;14.70;99.90;;;;;;5052976;28;20029;-73
2022/10/15 07:21:33;;;;;;;35.55;26.30;;;14.70;99.90;;;;;;5038402;28;20037;-73
2022/10/15 07:23:59;;;;;;;34.03;25.60;;;14.70;99.90;;;;;;5034721;28;20039;-73
2022/10/15 07:26:28;;;;;;;34.55;23.23;;;14.70;99.90;;;;;;5036603;28;20029;-74
2022/10/15 07:28:53;;;;;;;34.20;25.33;;;14.70;99.90;;;;;;5036126;28;20042;-72
2022/10/15 07:31:19;;;;;;;36.53;23.95;;;14.70;99.90;;;;;;5036253;28;20430;-72
2022/10/15 07:33:44;;;;;;;31.38;22.65;;;14.70;99.90;;;;;;5036451;28;20034;-72
2022/10/15 07:36:14;;;;;;;36.40;22.45;;;14.70;99.90;;;;;;5036362;28;20380;-72
2022/10/15 07:38:39;;;;;;;31.95;23.85;;;14.80;99.90;;;;;;5036467;28;20041;-72
2022/10/15 07:41:06;;;;;;;32.72;23.25;;;14.80;99.90;;;;;;5036189;28;20045;-72
2022/10/15 07:43:33;;;;;;;30.77;22.13;;;14.80;99.90;;;;;;5036398;28;20120;-72
2022/10/15 07:45:59;;;;;;;33.15;23.92;;;14.80;99.90;;;;;;5036352;28;20362;-72
2022/10/15 07:48:24;;;;;;;33.30;23.25;;;14.80;99.90;;;;;;5036124;28;20025;-72
2022/10/15 07:50:55;;;;;;;34.17;24.50;;;14.80;99.90;;;;;;5035748;28;20021;-71
2022/10/15 07:53:20;;;;;;;33.25;24.58;;;14.80;99.90;;;;;;5035006;28;20550;-74
2022/10/15 07:55:48;;;;;;;35.25;25.00;;;14.80;99.90;;;;;;5035806;28;20038;-72
2022/10/15 07:58:14;;;;;;;37.83;25.15;;;14.80;99.90;;;;;;5035973;28;20109;-72
2022/10/15 08:00:40;;;;;;;37.45;26.70;;;14.80;99.90;;;;;;5035183;28;20117;-72
2022/10/15 08:03:05;;;;;;;37.80;26.55;;;14.80;99.90;;;;;;5034331;28;20084;-72
2022/10/15 08:05:33;;;;;;;36.92;27.00;;;14.80;99.90;;;;;;5034161;28;20541;-73
2022/10/15 08:07:58;;;;;;;42.33;26.75;;;14.80;99.90;;;;;;5034470;28;20807;-72
2022/10/15 08:10:24;;;;;;;39.78;27.40;;;14.80;99.90;;;;;;5034102;28;20032;-72
2022/10/15 08:12:50;;;;;;;35.78;26.38;;;14.80;99.90;;;;;;5034676;28;20022;-73
2022/10/15 08:15:16;;;;;;;35.15;25.80;;;14.80;99.90;;;;;;5040830;28;20074;-72
2022/10/15 08:17:42;;;;;;;36.03;26.60;;;14.80;99.90;;;;;;5036198;28;20104;-72
2022/10/15 08:20:08;;;;;;;38.63;26.58;;;14.90;99.90;;;;;;5034989;28;20028;-72
2022/10/15 08:22:34;;;;;;;36.10;25.77;;;14.90;99.90;;;;;;5035561;28;20029;-73
2022/10/15 08:25:00;;;;;;;35.42;25.92;;;15.00;99.90;;;;;;5035174;28;20025;-72
2022/10/15 08:27:25;;;;;;;37.10;24.27;;;15.00;99.90;;;;;;5034900;28;20044;-72
2022/10/15 08:29:51;;;;;;;36.72;25.02;;;15.10;99.90;;;;;;5035185;28;20025;-72
2022/10/15 08:32:17;;;;;;;33.05;23.50;;;15.10;99.90;;;;;;5035015;28;20030;-73
2022/10/15 08:34:42;;;;;;;32.85;24.30;;;15.20;99.90;;;;;;5034762;28;20025;-72
2022/10/15 08:37:08;;;;;;;29.70;22.05;;;15.30;99.90;;;;;;5034978;28;20420;-73
2022/10/15 08:39:37;;;;;;;31.42;23.85;;;15.40;99.90;;;;;;5035029;28;20026;-73
2022/10/15 08:42:14;;;;;;;33.47;24.30;;;15.50;99.90;;;;;;5035298;28;20045;-75
2022/10/15 08:44:46;;;;;;;31.00;23.52;;;15.50;99.90;;;;;;5034888;28;20033;-75
2022/10/15 08:47:35;;;;;;;27.55;21.55;;;15.60;99.90;;;;;;5035023;28;20380;-74
2022/10/15 08:50:09;;;;;;;28.98;22.33;;;15.60;99.90;;;;;;5035069;28;20097;-76
2022/10/15 08:52:42;;;;;;;28.00;20.50;;;15.70;99.90;;;;;;5034986;28;20064;-74
2022/10/15 08:55:15;;;;;;;;;;;15.70;99.90;;;;;;5034965;28;20522;-75
2022/10/15 08:57:53;;;;;;;25.63;18.27;;;15.80;99.90;;;;;;5034876;28;19905;-75
2022/10/15 09:00:22;;;;;;;25.38;18.13;;;15.80;99.90;;;;;;5034260;28;20080;-76
2022/10/15 09:03:17;;;;;;;24.15;15.63;;;15.80;99.90;;;;;;5032206;28;20423;-73
2022/10/15 09:06:16;;;;;;;21.75;17.30;;;15.80;99.90;;;;;;5025083;28;20432;-75
2022/10/15 09:09:03;;;;;;;22.45;17.05;;;15.90;99.90;;;;;;5035233;28;20040;-74
2022/10/15 09:11:54;;;;;;;22.48;16.10;;;15.90;99.90;;;;;;5050419;28;20036;-75
2022/10/15 09:14:46;;;;;;;20.80;16.65;;;16.00;99.90;;;;;;5036635;28;20151;-76
2022/10/15 09:17:26;;;;;;;21.88;16.17;;;16.00;99.90;;;;;;5034068;28;20027;-75
2022/10/15 09:19:56;;;;;;;22.83;16.63;;;16.10;99.90;;;;;;5033771;28;20033;-74
2022/10/15 09:22:28;;;;;;;23.60;16.52;;;16.20;99.90;;;;;;5033441;28;20037;-73
2022/10/15 09:24:55;;;;;;;22.73;16.63;;;16.20;99.90;;;;;;5033703;28;20067;-74
2022/10/15 09:27:38;;;;;;;20.38;16.05;;;16.10;99.90;;;;;;5033203;28;20136;-75
2022/10/15 09:30:42;;;;;;;18.98;14.95;;;16.10;99.90;;;;;;5032145;28;20041;-75
2022/10/15 09:33:17;;;;;;;18.50;13.98;;;16.10;99.90;;;;;;4990445;28;20469;-75
2022/10/15 09:35:55;;;;;;;18.55;14.95;;;16.10;99.90;;;;;;4990070;28;20057;-74
2022/10/15 09:38:29;;;;;;;18.85;14.23;;;16.10;99.90;;;;;;5005643;28;20030;-73
2022/10/15 09:41:14;;;;;;;21.02;13.95;;;16.10;99.90;;;;;;5014130;28;20030;-74
2022/10/15 09:43:41;;;;;;;14.68;11.65;;;16.20;99.90;;;;;;5026058;28;20437;-75
2022/10/15 09:46:09;;;;;;;18.17;12.90;;;16.20;99.90;;;;;;5033647;28;20025;-75
2022/10/15 09:48:41;;;;;;;17.45;13.00;;;16.30;99.90;;;;;;5034045;28;20040;-75
2022/10/15 09:51:35;;;;;;;16.58;12.57;;;16.20;99.90;;;;;;5033966;28;20033;-75
2022/10/15 09:54:42;;;;;;;15.55;11.73;;;16.30;99.90;;;;;;5033691;28;20021;-75
2022/10/15 09:57:10;;;;;;;13.98;12.02;;;16.30;99.90;;;;;;5011816;28;20030;-75
2022/10/15 09:59:36;;;;;;;17.23;10.75;;;16.30;99.90;;;;;;5030158;28;20029;-74
2022/10/15 10:02:18;;;;;;;14.77;10.80;;;16.40;99.90;;;;;;5033631;28;20041;-74
2022/10/15 10:04:43;;;;;;;12.95;10.52;;;16.30;99.90;;;;;;5034810;28;20120;-74
2022/10/15 10:07:33;;;;;;;13.50;9.85;;;16.30;99.90;;;;;;5044277;28;20029;-73
2022/10/15 10:10:19;;;;;;;12.25;9.38;;;16.30;99.90;;;;;;5037872;28;20075;-75
2022/10/15 10:12:46;;;;;;;16.20;11.35;;;16.20;99.90;;;;;;5033437;28;20552;-74
2022/10/15 10:15:42;;;;;;;17.15;11.52;;;16.20;99.90;;;;;;5033253;28;20112;-74
2022/10/15 10:18:18;;;;;;;19.55;11.27;;;16.20;99.90;;;;;;5032611;28;20068;-75
2022/10/15 10:21:02;;;;;;;14.88;10.05;;;16.20;99.90;;;;;;5033732;28;20022;-74
2022/10/15 10:23:38;;;;;;;16.52;10.55;;;16.20;99.90;;;;;;5033322;28;20087;-76
2022/10/15 10:26:09;;;;;;;15.25;10.82;;;16.30;99.90;;;;;;5033475;28;20049;-76
2022/10/15 10:28:48;;;;;;;14.25;11.10;;;16.30;99.90;;;;;;5033253;28;20528;-75
2022/10/15 10:31:14;;;;;;;12.75;8.90;;;16.30;99.90;;;;;;5033238;28;20029;-75
2022/10/15 10:33:48;;;;;;;16.40;11.52;;;16.30;99.90;;;;;;5033135;28;20025;-74
2022/10/15 10:36:22;;;;;;;13.80;10.57;;;16.30;99.90;;;;;;5033334;28;20377;-73
2022/10/15 10:39:14;;;;;;;14.27;10.02;;;16.30;99.90;;;;;;5027266;28;20469;-72
2022/10/15 10:41:49;;;;;;;16.52;11.05;;;16.40;99.90;;;;;;5013989;28;20038;-73
2022/10/15 10:44:31;;;;;;;15.75;11.00;;;16.40;99.90;;;;;;5018332;28;20109;-75
2022/10/15 10:47:20;;;;;;;17.80;11.43;;;16.30;99.90;;;;;;5035487;28;20031;-74
2022/10/15 10:49:56;;;;;;;15.30;11.15;;;16.30;99.90;;;;;;5046950;28;20075;-73
2022/10/15 10:52:29;;;;;;;17.08;11.35;;;16.20;99.90;;;;;;5052103;28;20484;-74
2022/10/15 10:55:03;;;;;;;16.10;11.52;;;16.20;99.90;;;;;;5053059;28;20033;-73
2022/10/15 10:57:48;;;;;;;16.27;10.70;;;16.10;99.90;;;;;;5053130;28;20032;-74
2022/10/15 11:00:31;;;;;;;14.93;10.55;;;16.10;99.90;;;;;;5053462;28;20094;-73
2022/10/15 11:02:57;;;;;;;17.27;11.27;;;16.10;99.90;;;;;;5061281;28;20115;-72
2022/10/15 11:05:29;;;;;;;15.38;10.98;;;16.10;99.90;;;;;;5058829;28;20064;-74
2022/10/15 11:07:55;;;;;;;;;;;16.10;99.90;;;;;;5053773;28;20067;-73
2022/10/15 11:10:34;;;;;;;15.55;10.88;;;16.10;99.90;;;;;;5052626;28;19947;-74
2022/10/15 11:12:59;;;;;;;17.25;11.70;;;16.10;99.90;;;;;;5052466;28;20082;-75
2022/10/15 11:15:49;;;;;;;15.48;10.23;;;16.10;99.90;;;;;;5052819;28;20025;-74
2022/10/15 11:18:23;;;;;;;16.65;10.82;;;16.10;99.90;;;;;;5052865;28;20392;-76
2022/10/15 11:21:26;;;;;;;17.52;11.05;;;16.10;99.90;;;;;;5052648;28;20052;-75
2022/10/15 11:24:16;;;;;;;17.48;11.85;;;16.10;99.90;;;;;;5052812;28;20043;-73
2022/10/15 11:27:09;;;;;;;13.68;10.32;;;16.00;99.90;;;;;;5052622;28;20486;-76
2022/10/15 11:30:11;;;;;;;11.60;8.75;;;16.00;99.90;;;;;;5056123;28;20045;-73
2022/10/15 11:32:39;;;;;;;14.80;9.65;;;15.90;99.90;;;;;;5047562;28;20029;-73
2022/10/15 11:35:10;;;;;;;13.88;9.65;;;16.00;99.90;;;;;;5056286;28;20029;-73
2022/10/15 11:37:59;;;;;;;14.25;9.52;;;16.00;99.90;;;;;;5056196;28;20021;-74
2022/10/15 11:41:09;;;;;;;14.55;9.57;;;16.00;99.90;;;;;;5055800;28;20571;-72
2022/10/15 11:43:56;;;;;;;10.82;7.60;;;16.10;99.90;;;;;;5054696;28;20119;-73
2022/10/15 11:46:53;;;;;;;10.60;7.40;;;16.10;99.90;;;;;;5053901;28;20388;-72
2022/10/15 11:49:43;;;;;;;11.93;7.20;;;16.10;99.90;;;;;;5054066;28;20028;-73
2022/10/15 11:52:17;;;;;;;10.98;6.57;;;16.10;99.90;;;;;;5053989;28;20036;-74
2022/10/15 11:54:59;;;;;;;12.95;6.50;;;16.20;99.90;;;;;;5054149;28;20032;-73
2022/10/15 11:57:27;;;;;;;10.90;5.85;;;16.20;99.90;;;;;;5054357;28;20189;-73
2022/10/15 11:59:58;;;;;;;10.13;6.03;;;16.20;99.90;;;;;;5059700;28;20021;-72
2022/10/15 12:02:35;;;;;;;8.60;5.20;;;16.20;99.90;;;;;;5063557;28;20108;-73
2022/10/15 12:05:38;;;;;;;7.13;4.22;;;16.20;99.90;;;;;;5055805;28;20033;-73
2022/10/15 12:08:08;;;;;;;8.40;5.63;;;16.30;99.90;;;;;;5055827;28;20091;-73
2022/10/15 12:10:58;;;;;;;5.95;4.72;;;16.20;99.90;;;;;;5055112;28;20441;-73
2022/10/15 12:13:41;;;;;;;9.23;4.28;;;16.20;99.90;;;;;;5055331;28;20036;-74
2022/10/15 12:16:28;;;;;;;6.40;4.18;;;16.20;99.90;;;;;;5055582;28;20028;-73
2022/10/15 12:19:15;;;;;;;9.98;4.80;;;16.20;99.90;;;;;;5055266;28;20024;-73
2022/10/15 12:21:55;;;;;;;6.70;4.30;;;16.20;99.90;;;;;;5055136;28;20075;-73
2022/10/15 12:24:50;;;;;;;9.10;4.68;;;16.20;99.90;;;;;;5055171;28;20495;-73
2022/10/15 12:27:19;;;;;;;5.00;4.20;;;16.20;99.90;;;;;;5054085;28;20488;-73
2022/10/15 12:29:52;;;;;;;5.82;3.88;;;16.30;99.90;;;;;;5055395;28;20033;-73
2022/10/15 12:32:36;;;;;;;6.22;3.45;;;16.30;99.90;;;;;;5055286;28;20432;-73
2022/10/15 12:35:14;;;;;;;4.32;3.90;;;16.30;99.90;;;;;;5055431;28;20051;-73
2022/10/15 12:37:42;;;;;;;4.35;3.90;;;16.40;99.90;;;;;;5055286;28;20035;-73
2022/10/15 12:40:20;;;;;;;5.68;4.15;;;16.30;99.90;;;;;;5054443;28;20473;-73
2022/10/15 12:42:51;;;;;;;7.10;4.45;;;16.40;99.90;;;;;;5054945;28;20091;-73
2022/10/15 12:45:27;;;;;;;6.82;4.43;;;16.40;99.90;;;;;;5054878;28;20021;-74
2022/10/15 12:48:05;;;;;;;4.47;4.05;;;16.40;99.90;;;;;;5054822;28;20021;-73
2022/10/15 12:50:37;;;;;;;5.55;4.00;;;16.40;99.90;;;;;;5054577;28;20024;-73
2022/10/15 12:53:04;;;;;;;7.43;4.47;;;16.50;99.90;;;;;;5054687;28;20103;-73
2022/10/15 12:55:35;;;;;;;7.70;4.85;;;16.50;99.90;;;;;;5056251;28;20021;-71
2022/10/15 12:58:23;;;;;;;8.88;4.90;;;16.50;99.90;;;;;;5059326;28;20105;-72